sensor_id;sensor_type;location;lat;lon;timestamp;temperature;humidity
17381;DHT22;8808;52.478;13.378;2023-11-21T00:01:10;9.20;99.90
17381;DHT22;8808;52.478;13.378;2023-11-21T00:03:38;9.20;99.90
17381;DHT22;8808;52.478;13.378;2023-11-21T00:06:06;8.90;99.90
17381;DHT22;8808;52.478;13.378;2023-11-21T00:08:34;8.90;99.90
17381;DHT22;8808;52.478;13.378;2023-11-21T00:11:01;8.70;99.90
17381;DHT22;8808;52.478;13.378;2023-11-21T00:13:31;8.70;99.90
17381;DHT22;8808;52.478;13.378;2023-11-21T00:21:31;8.70;99.90
17381;DHT22;8808;52.478;13.378;2023-11-21T00:23:58;8.50;99.90
17381;DHT22;8808;52.478;13.378;2023-11-21T00:26:25;8.50;99.90
17381;DHT22;8808;52.478;13.378;2023-11-21T00:28:53;8.40;99.90
17381;DHT22;8808;52.478;13.378;2023-11-21T00:31:20;8.40;99.90
17381;DHT22;8808;52.478;13.378;2023-11-21T00:33:47;8.20;99.90
17381;DHT22;8808;52.478;13.378;2023-11-21T00:36:14;8.20;99.90
17381;DHT22;8808;52.478;13.378;2023-11-21T00:38:43;8.10;99.90
17381;DHT22;8808;52.478;13.378;2023-11-21T00:41:10;8.10;99.90
17381;DHT22;8808;52.478;13.378;2023-11-21T00:43:37;8.10;99.90
17381;DHT22;8808;52.478;13.378;2023-11-21T00:46:04;8.20;99.90
17381;DHT22;8808;52.478;13.378;2023-11-21T00:48:32;8.20;99.90
17381;DHT22;8808;52.478;13.378;2023-11-21T00:51:00;8.10;99.90
17381;DHT22;8808;52.478;13.378;2023-11-21T00:53:26;8.00;99.90
17381;DHT22;8808;52.478;13.378;2023-11-21T00:55:55;8.20;99.90
17381;DHT22;8808;52.478;13.378;2023-11-21T00:58:23;8.20;99.90
17381;DHT22;8808;52.478;13.378;2023-11-21T01:00:50;8.10;99.90
17381;DHT22;8808;52.478;13.378;2023-11-21T01:03:17;8.20;99.90
17381;DHT22;8808;52.478;13.378;2023-11-21T01:05:44;8.10;99.90
17381;DHT22;8808;52.478;13.378;2023-11-21T01:08:11;7.90;99.90
17381;DHT22;8808;52.478;13.378;2023-11-21T01:10:38;7.70;99.90
17381;DHT22;8808;52.478;13.378;2023-11-21T01:13:06;7.90;99.90
17381;DHT22;8808;52.478;13.378;2023-11-21T01:15:33;7.80;99.90
17381;DHT22;8808;52.478;13.378;2023-11-21T01:18:00;7.80;99.90
17381;DHT22;8808;52.478;13.378;2023-11-21T01:20:27;7.70;99.90
17381;DHT22;8808;52.478;13.378;2023-11-21T01:22:54;7.70;99.90
17381;DHT22;8808;52.478;13.378;2023-11-21T01:25:21;7.50;99.90
17381;DHT22;8808;52.478;13.378;2023-11-21T01:27:48;7.50;99.90
17381;DHT22;8808;52.478;13.378;2023-11-21T01:30:18;7.50;99.90
17381;DHT22;8808;52.478;13.378;2023-11-21T01:32:45;7.50;99.90
17381;DHT22;8808;52.478;13.378;2023-11-21T01:35:12;7.40;99.90
17381;DHT22;8808;52.478;13.378;2023-11-21T01:37:39;7.70;99.90
17381;DHT22;8808;52.478;13.378;2023-11-21T01:40:07;7.60;99.90
17381;DHT22;8808;52.478;13.378;2023-11-21T01:42:38;7.70;99.90
17381;DHT22;8808;52.478;13.378;2023-11-21T01:45:06;7.60;99.90
17381;DHT22;8808;52.478;13.378;2023-11-21T01:47:36;7.40;99.90
17381;DHT22;8808;52.478;13.378;2023-11-21T01:50:07;7.50;99.90
17381;DHT22;8808;52.478;13.378;2023-11-21T01:52:34;7.40;99.90
17381;DHT22;8808;52.478;13.378;2023-11-21T01:55:02;7.50;99.90
17381;DHT22;8808;52.478;13.378;2023-11-21T01:57:30;7.40;99.90
17381;DHT22;8808;52.478;13.378;2023-11-21T01:59:58;7.50;99.90
17381;DHT22;8808;52.478;13.378;2023-11-21T02:02:38;7.40;99.90
17381;DHT22;8808;52.478;13.378;2023-11-21T02:05:05;7.30;99.90
17381;DHT22;8808;52.478;13.378;2023-11-21T02:07:34;7.40;99.90
17381;DHT22;8808;52.478;13.378;2023-11-21T02:10:01;7.40;99.90
17381;DHT22;8808;52.478;13.378;2023-11-21T02:12:30;7.40;99.90
17381;DHT22;8808;52.478;13.378;2023-11-21T02:14:57;7.30;99.90
17381;DHT22;8808;52.478;13.378;2023-11-21T02:17:24;7.50;99.90
17381;DHT22;8808;52.478;13.378;2023-11-21T02:19:54;7.30;99.90
17381;DHT22;8808;52.478;13.378;2023-11-21T02:22:21;7.30;99.90
17381;DHT22;8808;52.478;13.378;2023-11-21T02:24:53;7.20;99.90
17381;DHT22;8808;52.478;13.378;2023-11-21T02:27:20;7.10;99.90
17381;DHT22;8808;52.478;13.378;2023-11-21T02:29:49;7.20;99.90
17381;DHT22;8808;52.478;13.378;2023-11-21T02:32:16;7.00;99.90
17381;DHT22;8808;52.478;13.378;2023-11-21T02:34:44;7.30;99.90
17381;DHT22;8808;52.478;13.378;2023-11-21T02:37:11;7.10;99.90
17381;DHT22;8808;52.478;13.378;2023-11-21T02:39:38;7.10;99.90
17381;DHT22;8808;52.478;13.378;2023-11-21T02:42:07;7.20;99.90
17381;DHT22;8808;52.478;13.378;2023-11-21T02:44:34;7.20;99.90
17381;DHT22;8808;52.478;13.378;2023-11-21T02:47:01;7.10;99.90
17381;DHT22;8808;52.478;13.378;2023-11-21T02:49:29;7.10;99.90
17381;DHT22;8808;52.478;13.378;2023-11-21T02:51:56;7.10;99.90
17381;DHT22;8808;52.478;13.378;2023-11-21T02:54:23;6.90;99.90
17381;DHT22;8808;52.478;13.378;2023-11-21T02:56:53;6.90;99.90
17381;DHT22;8808;52.478;13.378;2023-11-21T02:59:21;6.80;99.90
17381;DHT22;8808;52.478;13.378;2023-11-21T03:01:48;6.90;99.90
17381;DHT22;8808;52.478;13.378;2023-11-21T03:04:15;7.00;99.90
17381;DHT22;8808;52.478;13.378;2023-11-21T03:06:43;6.80;99.90
17381;DHT22;8808;52.478;13.378;2023-11-21T03:09:10;6.90;99.90
17381;DHT22;8808;52.478;13.378;2023-11-21T03:11:38;6.90;99.90
17381;DHT22;8808;52.478;13.378;2023-11-21T03:14:05;6.80;99.90
17381;DHT22;8808;52.478;13.378;2023-11-21T03:16:34;6.70;99.90
17381;DHT22;8808;52.478;13.378;2023-11-21T03:19:01;6.70;99.90
17381;DHT22;8808;52.478;13.378;2023-11-21T03:21:27;6.80;99.90
17381;DHT22;8808;52.478;13.378;2023-11-21T03:23:55;7.00;99.90
17381;DHT22;8808;52.478;13.378;2023-11-21T03:26:22;6.90;99.90
17381;DHT22;8808;52.478;13.378;2023-11-21T03:28:49;6.90;99.90
17381;DHT22;8808;52.478;13.378;2023-11-21T03:31:19;6.80;99.90
17381;DHT22;8808;52.478;13.378;2023-11-21T03:33:48;6.80;99.90
17381;DHT22;8808;52.478;13.378;2023-11-21T03:36:14;6.70;99.90
17381;DHT22;8808;52.478;13.378;2023-11-21T03:38:41;6.90;99.90
17381;DHT22;8808;52.478;13.378;2023-11-21T03:41:08;6.90;99.90
17381;DHT22;8808;52.478;13.378;2023-11-21T03:43:36;6.90;99.90
17381;DHT22;8808;52.478;13.378;2023-11-21T03:46:03;6.80;99.90
17381;DHT22;8808;52.478;13.378;2023-11-21T03:48:30;6.90;99.90
17381;DHT22;8808;52.478;13.378;2023-11-21T03:51:00;6.90;99.90
17381;DHT22;8808;52.478;13.378;2023-11-21T03:53:26;6.90;99.90
17381;DHT22;8808;52.478;13.378;2023-11-21T03:55:53;6.80;99.90
17381;DHT22;8808;52.478;13.378;2023-11-21T03:58:20;6.90;99.90
17381;DHT22;8808;52.478;13.378;2023-11-21T04:00:47;6.80;99.90
17381;DHT22;8808;52.478;13.378;2023-11-21T04:03:14;6.70;99.90
17381;DHT22;8808;52.478;13.378;2023-11-21T04:05:42;6.80;99.90
17381;DHT22;8808;52.478;13.378;2023-11-21T04:08:10;6.60;99.90
17381;DHT22;8808;52.478;13.378;2023-11-21T04:10:37;6.80;99.90
17381;DHT22;8808;52.478;13.378;2023-11-21T04:13:05;6.70;99.90
17381;DHT22;8808;52.478;13.378;2023-11-21T04:15:32;6.70;99.90
17381;DHT22;8808;52.478;13.378;2023-11-21T04:17:59;6.70;99.90
17381;DHT22;8808;52.478;13.378;2023-11-21T04:20:26;6.60;99.90
17381;DHT22;8808;52.478;13.378;2023-11-21T04:22:53;6.60;99.90
17381;DHT22;8808;52.478;13.378;2023-11-21T04:25:21;6.50;99.90
17381;DHT22;8808;52.478;13.378;2023-11-21T04:27:49;6.60;99.90
17381;DHT22;8808;52.478;13.378;2023-11-21T04:30:16;6.70;99.90
17381;DHT22;8808;52.478;13.378;2023-11-21T04:32:43;6.50;99.90
17381;DHT22;8808;52.478;13.378;2023-11-21T04:35:10;6.60;99.90
17381;DHT22;8808;52.478;13.378;2023-11-21T04:37:37;6.40;99.90
17381;DHT22;8808;52.478;13.378;2023-11-21T04:40:06;6.30;99.90
17381;DHT22;8808;52.478;13.378;2023-11-21T04:42:35;6.50;99.90
17381;DHT22;8808;52.478;13.378;2023-11-21T04:45:03;6.50;99.90
17381;DHT22;8808;52.478;13.378;2023-11-21T04:47:33;6.30;99.90
17381;DHT22;8808;52.478;13.378;2023-11-21T04:50:00;6.30;99.90
17381;DHT22;8808;52.478;13.378;2023-11-21T04:52:27;6.30;99.90
17381;DHT22;8808;52.478;13.378;2023-11-21T04:54:54;6.40;99.90
17381;DHT22;8808;52.478;13.378;2023-11-21T04:57:23;6.40;99.90
17381;DHT22;8808;52.478;13.378;2023-11-21T04:59:52;6.40;99.90
17381;DHT22;8808;52.478;13.378;2023-11-21T05:02:19;6.40;99.90
17381;DHT22;8808;52.478;13.378;2023-11-21T05:04:46;6.40;99.90
17381;DHT22;8808;52.478;13.378;2023-11-21T05:07:14;6.40;99.90
17381;DHT22;8808;52.478;13.378;2023-11-21T05:09:42;6.20;99.90
17381;DHT22;8808;52.478;13.378;2023-11-21T05:12:11;6.40;99.90
17381;DHT22;8808;52.478;13.378;2023-11-21T05:14:39;6.60;99.90
17381;DHT22;8808;52.478;13.378;2023-11-21T05:17:08;6.40;99.90
17381;DHT22;8808;52.478;13.378;2023-11-21T05:19:35;6.20;99.90
17381;DHT22;8808;52.478;13.378;2023-11-21T05:22:03;6.30;99.90
17381;DHT22;8808;52.478;13.378;2023-11-21T05:24:31;6.30;99.90
17381;DHT22;8808;52.478;13.378;2023-11-21T05:26:58;6.40;99.90
17381;DHT22;8808;52.478;13.378;2023-11-21T05:29:25;6.30;99.90
17381;DHT22;8808;52.478;13.378;2023-11-21T05:31:52;6.20;99.90
17381;DHT22;8808;52.478;13.378;2023-11-21T05:34:21;6.20;99.90
17381;DHT22;8808;52.478;13.378;2023-11-21T05:36:49;6.30;99.90
17381;DHT22;8808;52.478;13.378;2023-11-21T05:39:16;6.20;99.90
17381;DHT22;8808;52.478;13.378;2023-11-21T05:41:44;6.20;99.90
17381;DHT22;8808;52.478;13.378;2023-11-21T05:44:12;6.10;99.90
17381;DHT22;8808;52.478;13.378;2023-11-21T05:46:40;6.10;99.90
17381;DHT22;8808;52.478;13.378;2023-11-21T05:49:08;6.30;99.90
17381;DHT22;8808;52.478;13.378;2023-11-21T05:51:37;6.30;99.90
17381;DHT22;8808;52.478;13.378;2023-11-21T05:54:04;6.40;99.90
17381;DHT22;8808;52.478;13.378;2023-11-21T05:56:31;6.20;99.90
17381;DHT22;8808;52.478;13.378;2023-11-21T05:58:58;6.20;99.90
17381;DHT22;8808;52.478;13.378;2023-11-21T06:01:25;6.20;99.90
17381;DHT22;8808;52.478;13.378;2023-11-21T06:03:54;6.30;99.90
17381;DHT22;8808;52.478;13.378;2023-11-21T06:06:21;6.30;99.90
17381;DHT22;8808;52.478;13.378;2023-11-21T06:08:51;6.30;99.90
17381;DHT22;8808;52.478;13.378;2023-11-21T06:11:18;6.20;99.90
17381;DHT22;8808;52.478;13.378;2023-11-21T06:13:45;6.10;99.90
17381;DHT22;8808;52.478;13.378;2023-11-21T06:16:13;6.40;99.90
17381;DHT22;8808;52.478;13.378;2023-11-21T06:18:42;6.30;99.90
17381;DHT22;8808;52.478;13.378;2023-11-21T06:21:10;6.20;99.90
17381;DHT22;8808;52.478;13.378;2023-11-21T06:23:37;6.20;99.90
17381;DHT22;8808;52.478;13.378;2023-11-21T06:26:06;6.10;99.90
17381;DHT22;8808;52.478;13.378;2023-11-21T06:28:34;6.50;99.90
17381;DHT22;8808;52.478;13.378;2023-11-21T06:31:02;6.20;99.90
17381;DHT22;8808;52.478;13.378;2023-11-21T06:33:31;6.00;99.90
17381;DHT22;8808;52.478;13.378;2023-11-21T06:35:58;6.20;99.90
17381;DHT22;8808;52.478;13.378;2023-11-21T06:38:25;6.10;99.90
17381;DHT22;8808;52.478;13.378;2023-11-21T06:40:56;6.10;99.90
17381;DHT22;8808;52.478;13.378;2023-11-21T06:43:25;6.00;99.90
17381;DHT22;8808;52.478;13.378;2023-11-21T06:45:52;6.10;99.90
17381;DHT22;8808;52.478;13.378;2023-11-21T06:48:20;6.10;99.90
17381;DHT22;8808;52.478;13.378;2023-11-21T06:50:46;6.10;99.90
17381;DHT22;8808;52.478;13.378;2023-11-21T06:53:14;6.00;99.90
17381;DHT22;8808;52.478;13.378;2023-11-21T06:55:41;6.20;99.90
17381;DHT22;8808;52.478;13.378;2023-11-21T06:58:08;6.10;99.90
17381;DHT22;8808;52.478;13.378;2023-11-21T07:00:36;6.20;99.90
17381;DHT22;8808;52.478;13.378;2023-11-21T07:03:03;6.20;99.90
17381;DHT22;8808;52.478;13.378;2023-11-21T07:05:30;6.20;99.90
17381;DHT22;8808;52.478;13.378;2023-11-21T07:07:57;6.20;99.90
17381;DHT22;8808;52.478;13.378;2023-11-21T07:10:29;6.10;99.90
17381;DHT22;8808;52.478;13.378;2023-11-21T07:12:57;6.10;99.90
17381;DHT22;8808;52.478;13.378;2023-11-21T07:15:24;6.10;99.90
17381;DHT22;8808;52.478;13.378;2023-11-21T07:17:53;6.00;99.90
17381;DHT22;8808;52.478;13.378;2023-11-21T07:20:21;6.10;99.90
17381;DHT22;8808;52.478;13.378;2023-11-21T07:22:48;5.90;99.90
17381;DHT22;8808;52.478;13.378;2023-11-21T07:25:15;5.90;99.90
17381;DHT22;8808;52.478;13.378;2023-11-21T07:27:42;5.90;99.90
17381;DHT22;8808;52.478;13.378;2023-11-21T07:30:11;5.90;99.90
17381;DHT22;8808;52.478;13.378;2023-11-21T07:32:38;5.80;99.90
17381;DHT22;8808;52.478;13.378;2023-11-21T07:35:08;5.80;99.90
17381;DHT22;8808;52.478;13.378;2023-11-21T07:37:35;5.90;99.90
17381;DHT22;8808;52.478;13.378;2023-11-21T07:40:03;5.90;99.90
17381;DHT22;8808;52.478;13.378;2023-11-21T07:42:30;5.90;99.90
17381;DHT22;8808;52.478;13.378;2023-11-21T07:44:58;5.70;99.90
17381;DHT22;8808;52.478;13.378;2023-11-21T07:47:25;6.00;99.90
17381;DHT22;8808;52.478;13.378;2023-11-21T07:49:52;5.90;99.90
17381;DHT22;8808;52.478;13.378;2023-11-21T07:52:22;5.90;99.90
17381;DHT22;8808;52.478;13.378;2023-11-21T07:54:49;5.90;99.90
17381;DHT22;8808;52.478;13.378;2023-11-21T07:57:16;5.90;99.90
17381;DHT22;8808;52.478;13.378;2023-11-21T07:59:43;5.70;99.90
17381;DHT22;8808;52.478;13.378;2023-11-21T08:02:10;5.70;99.90
17381;DHT22;8808;52.478;13.378;2023-11-21T08:04:37;5.80;99.90
17381;DHT22;8808;52.478;13.378;2023-11-21T08:07:04;5.80;99.90
17381;DHT22;8808;52.478;13.378;2023-11-21T08:09:32;5.70;99.90
17381;DHT22;8808;52.478;13.378;2023-11-21T08:12:00;5.90;99.90
17381;DHT22;8808;52.478;13.378;2023-11-21T08:14:28;5.70;99.90
17381;DHT22;8808;52.478;13.378;2023-11-21T08:16:55;5.80;99.90
17381;DHT22;8808;52.478;13.378;2023-11-21T08:19:23;5.70;99.90
17381;DHT22;8808;52.478;13.378;2023-11-21T08:21:51;5.80;99.90
17381;DHT22;8808;52.478;13.378;2023-11-21T08:24:20;5.80;99.90
17381;DHT22;8808;52.478;13.378;2023-11-21T08:26:48;5.90;99.90
17381;DHT22;8808;52.478;13.378;2023-11-21T08:29:16;5.80;99.90
17381;DHT22;8808;52.478;13.378;2023-11-21T08:31:44;5.70;99.90
17381;DHT22;8808;52.478;13.378;2023-11-21T08:34:12;5.80;99.90
17381;DHT22;8808;52.478;13.378;2023-11-21T08:36:41;5.80;99.90
17381;DHT22;8808;52.478;13.378;2023-11-21T08:39:09;5.70;99.90
17381;DHT22;8808;52.478;13.378;2023-11-21T08:41:36;5.70;99.90
17381;DHT22;8808;52.478;13.378;2023-11-21T08:44:05;5.60;99.90
17381;DHT22;8808;52.478;13.378;2023-11-21T08:46:33;5.70;99.90
17381;DHT22;8808;52.478;13.378;2023-11-21T08:49:04;5.70;99.90
17381;DHT22;8808;52.478;13.378;2023-11-21T08:51:31;5.70;99.90
17381;DHT22;8808;52.478;13.378;2023-11-21T08:53:58;5.70;99.90
17381;DHT22;8808;52.478;13.378;2023-11-21T08:56:27;5.50;99.90
17381;DHT22;8808;52.478;13.378;2023-11-21T08:58:54;5.60;99.90
17381;DHT22;8808;52.478;13.378;2023-11-21T09:01:24;5.70;99.90
17381;DHT22;8808;52.478;13.378;2023-11-21T09:03:51;5.80;99.90
17381;DHT22;8808;52.478;13.378;2023-11-21T09:06:18;5.80;99.90
17381;DHT22;8808;52.478;13.378;2023-11-21T09:08:45;5.80;99.90
17381;DHT22;8808;52.478;13.378;2023-11-21T09:11:13;5.80;99.90
17381;DHT22;8808;52.478;13.378;2023-11-21T09:13:40;5.70;99.90
17381;DHT22;8808;52.478;13.378;2023-11-21T09:16:07;5.80;99.90
17381;DHT22;8808;52.478;13.378;2023-11-21T09:18:36;5.80;99.90
17381;DHT22;8808;52.478;13.378;2023-11-21T09:21:03;5.70;99.90
17381;DHT22;8808;52.478;13.378;2023-11-21T09:23:30;5.90;99.90
17381;DHT22;8808;52.478;13.378;2023-11-21T09:25:57;5.80;99.90
17381;DHT22;8808;52.478;13.378;2023-11-21T09:28:26;5.70;99.90
17381;DHT22;8808;52.478;13.378;2023-11-21T09:30:53;5.90;99.90
17381;DHT22;8808;52.478;13.378;2023-11-21T09:33:20;5.70;99.90
17381;DHT22;8808;52.478;13.378;2023-11-21T09:35:49;5.70;99.90
17381;DHT22;8808;52.478;13.378;2023-11-21T09:38:16;5.90;99.90
17381;DHT22;8808;52.478;13.378;2023-11-21T09:40:43;5.70;99.90
17381;DHT22;8808;52.478;13.378;2023-11-21T09:43:16;5.80;99.90
17381;DHT22;8808;52.478;13.378;2023-11-21T09:45:46;5.80;99.90
17381;DHT22;8808;52.478;13.378;2023-11-21T09:48:14;6.00;99.90
17381;DHT22;8808;52.478;13.378;2023-11-21T09:50:42;5.80;99.90
17381;DHT22;8808;52.478;13.378;2023-11-21T09:53:13;5.60;99.90
17381;DHT22;8808;52.478;13.378;2023-11-21T09:55:44;5.70;99.90
17381;DHT22;8808;52.478;13.378;2023-11-21T09:58:12;5.50;99.90
17381;DHT22;8808;52.478;13.378;2023-11-21T10:00:41;5.50;99.90
17381;DHT22;8808;52.478;13.378;2023-11-21T10:03:08;5.70;99.90
17381;DHT22;8808;52.478;13.378;2023-11-21T10:05:35;5.60;99.90
17381;DHT22;8808;52.478;13.378;2023-11-21T10:08:04;5.70;99.90
17381;DHT22;8808;52.478;13.378;2023-11-21T10:10:35;5.90;99.90
17381;DHT22;8808;52.478;13.378;2023-11-21T10:13:03;5.70;99.90
17381;DHT22;8808;52.478;13.378;2023-11-21T10:15:33;5.60;99.90
17381;DHT22;8808;52.478;13.378;2023-11-21T10:18:02;5.60;99.90
17381;DHT22;8808;52.478;13.378;2023-11-21T10:20:32;5.70;99.90
17381;DHT22;8808;52.478;13.378;2023-11-21T10:23:00;5.50;99.90
17381;DHT22;8808;52.478;13.378;2023-11-21T10:25:29;5.50;99.90
17381;DHT22;8808;52.478;13.378;2023-11-21T10:28:01;5.50;99.90
17381;DHT22;8808;52.478;13.378;2023-11-21T10:30:32;5.50;99.90
17381;DHT22;8808;52.478;13.378;2023-11-21T10:33:03;5.40;99.90
17381;DHT22;8808;52.478;13.378;2023-11-21T10:35:43;5.40;99.90
17381;DHT22;8808;52.478;13.378;2023-11-21T10:38:13;5.30;99.90
17381;DHT22;8808;52.478;13.378;2023-11-21T10:40:40;5.50;99.90
17381;DHT22;8808;52.478;13.378;2023-11-21T10:43:09;5.40;99.90
17381;DHT22;8808;52.478;13.378;2023-11-21T10:45:37;5.50;99.90
17381;DHT22;8808;52.478;13.378;2023-11-21T10:48:05;5.40;99.90
17381;DHT22;8808;52.478;13.378;2023-11-21T10:50:34;5.30;99.90
17381;DHT22;8808;52.478;13.378;2023-11-21T10:53:02;5.20;99.90
17381;DHT22;8808;52.478;13.378;2023-11-21T10:55:31;5.30;99.90
17381;DHT22;8808;52.478;13.378;2023-11-21T10:57:59;5.50;99.90
17381;DHT22;8808;52.478;13.378;2023-11-21T11:00:29;5.20;99.90
17381;DHT22;8808;52.478;13.378;2023-11-21T11:02:56;5.40;99.90
17381;DHT22;8808;52.478;13.378;2023-11-21T11:05:25;5.30;99.90
17381;DHT22;8808;52.478;13.378;2023-11-21T11:07:58;5.20;99.90
17381;DHT22;8808;52.478;13.378;2023-11-21T11:10:27;5.30;99.90
17381;DHT22;8808;52.478;13.378;2023-11-21T11:12:55;5.40;99.90
17381;DHT22;8808;52.478;13.378;2023-11-21T11:15:23;5.30;99.90
17381;DHT22;8808;52.478;13.378;2023-11-21T11:17:52;5.30;99.90
17381;DHT22;8808;52.478;13.378;2023-11-21T11:20:23;5.40;99.90
17381;DHT22;8808;52.478;13.378;2023-11-21T11:23:04;5.10;99.90
17381;DHT22;8808;52.478;13.378;2023-11-21T11:25:57;5.20;99.90
17381;DHT22;8808;52.478;13.378;2023-11-21T11:28:35;5.10;99.90
17381;DHT22;8808;52.478;13.378;2023-11-21T11:31:09;5.30;99.90
17381;DHT22;8808;52.478;13.378;2023-11-21T11:33:46;5.30;99.90
17381;DHT22;8808;52.478;13.378;2023-11-21T11:36:21;5.30;99.90
17381;DHT22;8808;52.478;13.378;2023-11-21T11:38:49;5.20;99.90
17381;DHT22;8808;52.478;13.378;2023-11-21T11:41:25;5.40;99.90
17381;DHT22;8808;52.478;13.378;2023-11-21T11:43:53;5.10;99.90
17381;DHT22;8808;52.478;13.378;2023-11-21T11:46:20;5.40;99.90
17381;DHT22;8808;52.478;13.378;2023-11-21T11:49:02;5.40;99.90
17381;DHT22;8808;52.478;13.378;2023-11-21T11:51:30;5.40;99.90
17381;DHT22;8808;52.478;13.378;2023-11-21T11:53:57;5.50;99.90
17381;DHT22;8808;52.478;13.378;2023-11-21T11:56:28;5.50;99.90
17381;DHT22;8808;52.478;13.378;2023-11-21T11:58:58;5.50;99.90
17381;DHT22;8808;52.478;13.378;2023-11-21T12:01:26;5.50;99.90
17381;DHT22;8808;52.478;13.378;2023-11-21T12:04:25;5.50;99.90
17381;DHT22;8808;52.478;13.378;2023-11-21T12:06:59;5.20;99.90
17381;DHT22;8808;52.478;13.378;2023-11-21T12:09:28;5.40;99.90
17381;DHT22;8808;52.478;13.378;2023-11-21T12:11:57;5.30;99.90
17381;DHT22;8808;52.478;13.378;2023-11-21T12:14:24;5.30;99.90
17381;DHT22;8808;52.478;13.378;2023-11-21T12:16:51;5.30;99.90
17381;DHT22;8808;52.478;13.378;2023-11-21T12:19:19;5.30;99.90
17381;DHT22;8808;52.478;13.378;2023-11-21T12:21:48;5.40;99.90
17381;DHT22;8808;52.478;13.378;2023-11-21T12:24:16;5.20;99.90
17381;DHT22;8808;52.478;13.378;2023-11-21T12:26:43;5.30;99.90
17381;DHT22;8808;52.478;13.378;2023-11-21T12:29:10;5.10;99.90
17381;DHT22;8808;52.478;13.378;2023-11-21T12:31:38;5.00;99.90
17381;DHT22;8808;52.478;13.378;2023-11-21T12:34:05;5.10;99.90
17381;DHT22;8808;52.478;13.378;2023-11-21T12:36:32;5.10;99.90
17381;DHT22;8808;52.478;13.378;2023-11-21T12:39:02;5.20;99.90
17381;DHT22;8808;52.478;13.378;2023-11-21T12:41:29;5.20;99.90
17381;DHT22;8808;52.478;13.378;2023-11-21T12:43:57;5.10;99.90
17381;DHT22;8808;52.478;13.378;2023-11-21T12:46:25;5.30;99.90
17381;DHT22;8808;52.478;13.378;2023-11-21T12:48:55;5.30;99.90
17381;DHT22;8808;52.478;13.378;2023-11-21T12:51:22;5.20;99.90
17381;DHT22;8808;52.478;13.378;2023-11-21T12:53:50;5.10;99.90
17381;DHT22;8808;52.478;13.378;2023-11-21T12:56:21;5.10;99.90
17381;DHT22;8808;52.478;13.378;2023-11-21T12:58:50;5.00;99.90
17381;DHT22;8808;52.478;13.378;2023-11-21T13:01:17;5.00;99.90
17381;DHT22;8808;52.478;13.378;2023-11-21T13:03:48;4.90;99.90
17381;DHT22;8808;52.478;13.378;2023-11-21T13:06:17;4.90;99.90
17381;DHT22;8808;52.478;13.378;2023-11-21T13:08:45;4.80;99.90
17381;DHT22;8808;52.478;13.378;2023-11-21T13:11:12;5.20;99.90
17381;DHT22;8808;52.478;13.378;2023-11-21T13:13:42;5.00;99.90
17381;DHT22;8808;52.478;13.378;2023-11-21T13:16:10;5.20;99.90
17381;DHT22;8808;52.478;13.378;2023-11-21T13:18:38;5.10;99.90
17381;DHT22;8808;52.478;13.378;2023-11-21T13:21:08;5.30;99.90
17381;DHT22;8808;52.478;13.378;2023-11-21T13:23:39;5.20;99.90
17381;DHT22;8808;52.478;13.378;2023-11-21T13:26:07;5.20;99.90
17381;DHT22;8808;52.478;13.378;2023-11-21T13:28:35;5.10;99.90
17381;DHT22;8808;52.478;13.378;2023-11-21T13:31:05;5.30;99.90
17381;DHT22;8808;52.478;13.378;2023-11-21T13:33:46;5.00;99.90
17381;DHT22;8808;52.478;13.378;2023-11-21T13:36:17;5.10;99.90
17381;DHT22;8808;52.478;13.378;2023-11-21T13:38:48;4.90;99.90
17381;DHT22;8808;52.478;13.378;2023-11-21T13:41:15;5.00;99.90
17381;DHT22;8808;52.478;13.378;2023-11-21T13:43:44;4.90;99.90
17381;DHT22;8808;52.478;13.378;2023-11-21T13:46:19;5.00;99.90
17381;DHT22;8808;52.478;13.378;2023-11-21T13:48:49;4.80;99.90
17381;DHT22;8808;52.478;13.378;2023-11-21T13:51:21;4.90;99.90
17381;DHT22;8808;52.478;13.378;2023-11-21T13:53:56;4.70;99.90
17381;DHT22;8808;52.478;13.378;2023-11-21T13:56:24;4.70;99.90
17381;DHT22;8808;52.478;13.378;2023-11-21T13:58:54;4.80;99.90
17381;DHT22;8808;52.478;13.378;2023-11-21T14:01:23;4.70;99.90
17381;DHT22;8808;52.478;13.378;2023-11-21T14:04:10;4.80;99.90
17381;DHT22;8808;52.478;13.378;2023-11-21T14:06:46;10.50;99.90
17381;DHT22;8808;52.478;13.378;2023-11-21T14:09:14;11.50;99.90
17381;DHT22;8808;52.478;13.378;2023-11-21T14:11:49;11.00;99.90
17381;DHT22;8808;52.478;13.378;2023-11-21T14:14:17;15.80;99.90
17381;DHT22;8808;52.478;13.378;2023-11-21T14:16:45;12.50;99.90
17381;DHT22;8808;52.478;13.378;2023-11-21T14:19:12;7.80;99.90
17381;DHT22;8808;52.478;13.378;2023-11-21T14:21:42;8.80;99.90
17381;DHT22;8808;52.478;13.378;2023-11-21T14:24:10;6.40;99.90
17381;DHT22;8808;52.478;13.378;2023-11-21T14:26:39;5.50;99.90
17381;DHT22;8808;52.478;13.378;2023-11-21T14:29:06;5.10;99.90
17381;DHT22;8808;52.478;13.378;2023-11-21T14:31:34;6.30;99.90
17381;DHT22;8808;52.478;13.378;2023-11-21T14:34:02;4.80;99.90
17381;DHT22;8808;52.478;13.378;2023-11-21T14:36:32;4.50;99.90
17381;DHT22;8808;52.478;13.378;2023-11-21T14:38:59;4.30;99.90
17381;DHT22;8808;52.478;13.378;2023-11-21T14:41:26;4.20;99.90
17381;DHT22;8808;52.478;13.378;2023-11-21T14:43:53;4.40;99.90
17381;DHT22;8808;52.478;13.378;2023-11-21T14:46:25;4.20;99.90
17381;DHT22;8808;52.478;13.378;2023-11-21T14:48:52;4.30;99.90
17381;DHT22;8808;52.478;13.378;2023-11-21T14:51:34;4.30;99.90
17381;DHT22;8808;52.478;13.378;2023-11-21T14:54:21;4.10;99.90
17381;DHT22;8808;52.478;13.378;2023-11-21T14:57:03;4.20;99.90
17381;DHT22;8808;52.478;13.378;2023-11-21T14:59:30;4.10;99.90
17381;DHT22;8808;52.478;13.378;2023-11-21T15:01:57;3.90;99.90
17381;DHT22;8808;52.478;13.378;2023-11-21T15:04:38;3.90;99.90
17381;DHT22;8808;52.478;13.378;2023-11-21T15:07:06;3.80;99.90
17381;DHT22;8808;52.478;13.378;2023-11-21T15:09:33;3.80;99.90
17381;DHT22;8808;52.478;13.378;2023-11-21T15:12:06;4.10;99.90
17381;DHT22;8808;52.478;13.378;2023-11-21T15:14:43;7.20;99.90
17381;DHT22;8808;52.478;13.378;2023-11-21T15:17:11;8.70;99.90
17381;DHT22;8808;52.478;13.378;2023-11-21T15:19:42;5.30;99.90
17381;DHT22;8808;52.478;13.378;2023-11-21T15:22:10;4.20;99.90
17381;DHT22;8808;52.478;13.378;2023-11-21T15:24:40;4.10;99.90
17381;DHT22;8808;52.478;13.378;2023-11-21T15:27:10;3.80;99.90
17381;DHT22;8808;52.478;13.378;2023-11-21T15:29:37;4.10;99.90
17381;DHT22;8808;52.478;13.378;2023-11-21T15:32:05;4.00;99.90
17381;DHT22;8808;52.478;13.378;2023-11-21T15:34:33;4.00;99.90
17381;DHT22;8808;52.478;13.378;2023-11-21T15:37:00;3.80;99.90
17381;DHT22;8808;52.478;13.378;2023-11-21T15:39:29;4.00;99.90
17381;DHT22;8808;52.478;13.378;2023-11-21T15:41:57;3.90;99.90
17381;DHT22;8808;52.478;13.378;2023-11-21T15:44:24;3.90;99.90
17381;DHT22;8808;52.478;13.378;2023-11-21T15:46:52;3.90;99.90
17381;DHT22;8808;52.478;13.378;2023-11-21T15:49:20;4.00;99.90
17381;DHT22;8808;52.478;13.378;2023-11-21T15:51:47;3.90;99.90
17381;DHT22;8808;52.478;13.378;2023-11-21T15:54:19;3.90;99.90
17381;DHT22;8808;52.478;13.378;2023-11-21T15:56:48;3.90;99.90
17381;DHT22;8808;52.478;13.378;2023-11-21T15:59:15;3.80;99.90